createdAt,value
2022-10-16T00:02:18.191Z,100332.09
2022-10-16T00:05:21.392Z,100333.63
2022-10-16T00:08:27.143Z,100339.69
2022-10-16T00:11:35.086Z,100338.72
2022-10-16T00:14:38.105Z,100337.66
2022-10-16T00:17:41.238Z,100335.19
2022-10-16T00:20:44.265Z,100331.31
2022-10-16T00:24:09.638Z,100333.22
2022-10-16T00:27:13.972Z,100326.34
2022-10-16T00:30:19.817Z,100331.56
2022-10-16T00:33:23.105Z,100341.78
2022-10-16T00:36:28.124Z,100341.50
2022-10-16T00:39:31.152Z,100345.75
2022-10-16T00:42:35.573Z,100346.19
2022-10-16T00:45:38.581Z,100343.28
2022-10-16T00:48:41.829Z,100332.13
2022-10-16T00:51:48.170Z,100330.72
2022-10-16T00:54:52.592Z,100332.94
2022-10-16T00:57:57.610Z,100334.72
2022-10-16T01:01:00.650Z,100333.47
2022-10-16T01:04:03.754Z,100338.16
2022-10-16T01:07:15.113Z,100345.34
2022-10-16T01:10:29.423Z,100340.38
2022-10-16T01:13:40.512Z,100339.56
2022-10-16T01:16:51.517Z,100341.34
2022-10-16T01:20:10.621Z,100338.88
2022-10-16T01:23:30.514Z,100353.88
2022-10-16T01:27:02.400Z,100358.31
2022-10-16T01:30:13.777Z,100361.22
2022-10-16T01:33:22.701Z,100360.38
2022-10-16T01:36:31.173Z,100367.25
2022-10-16T01:39:40.299Z,100368.78
2022-10-16T01:42:50.812Z,100377.06
2022-10-16T01:45:54.841Z,100378.69
2022-10-16T01:48:59.011Z,100374.44
2022-10-16T01:52:07.916Z,100375.41
2022-10-16T01:55:18.294Z,100378.69
2022-10-16T01:58:24.585Z,100379.66
2022-10-16T02:01:31.082Z,100378.56
2022-10-16T02:04:38.673Z,100383.94
2022-10-16T02:07:44.968Z,100392.63
2022-10-16T02:10:48.072Z,100375.69
2022-10-16T02:14:00.676Z,100377.34
2022-10-16T02:17:03.681Z,100376.53
2022-10-16T02:20:07.888Z,100385.47
2022-10-16T02:23:18.480Z,100386.16
2022-10-16T02:26:31.686Z,100397.03
2022-10-16T02:29:40.963Z,100392.50
2022-10-16T02:32:47.295Z,100383.66
2022-10-16T02:35:53.033Z,100383.09
2022-10-16T02:38:56.364Z,100378.16
2022-10-16T02:41:59.393Z,100385.31
2022-10-16T02:45:04.563Z,100391.25
2022-10-16T02:48:07.993Z,100383.38
2022-10-16T02:51:10.977Z,100392.91
2022-10-16T02:54:14.000Z,100395.09
2022-10-16T02:57:17.081Z,100394.13
2022-10-16T03:00:22.508Z,100393.81
2022-10-16T03:03:25.471Z,100394.41
2022-10-16T03:06:28.511Z,100394.41
2022-10-16T03:09:31.537Z,100397.97
2022-10-16T03:12:34.550Z,100414.53
2022-10-16T03:15:38.853Z,100418.28
2022-10-16T03:18:41.860Z,100425.03
2022-10-16T03:21:45.226Z,100430.69
2022-10-16T03:24:48.282Z,100431.09
2022-10-16T03:27:51.292Z,100427.22
2022-10-16T03:30:55.690Z,100443.66
2022-10-16T03:33:59.007Z,100441.16
2022-10-16T03:37:02.003Z,100448.75
2022-10-16T03:40:06.118Z,100464.31
2022-10-16T03:43:09.113Z,100471.72
2022-10-16T03:46:13.630Z,100475.63
2022-10-16T03:49:16.862Z,100473.53
2022-10-16T03:52:20.830Z,100484.28
2022-10-16T03:55:23.894Z,100494.47
2022-10-16T03:58:27.034Z,100489.22
2022-10-16T04:01:31.443Z,100491.44
2022-10-16T04:04:34.465Z,100499.19
2022-10-16T04:07:37.431Z,100493.50
2022-10-16T04:10:42.126Z,100501.91
2022-10-16T04:13:45.280Z,100505.50
2022-10-16T04:16:49.590Z,100504.66
2022-10-16T04:19:52.573Z,100501.38
2022-10-16T04:22:55.837Z,100508.25
2022-10-16T04:25:59.013Z,100514.84
2022-10-16T04:29:02.123Z,100508.81
2022-10-16T04:32:06.589Z,100510.69
2022-10-16T04:35:10.698Z,100502.31
2022-10-16T04:38:14.037Z,100498.59
2022-10-16T04:41:17.104Z,100495.41
2022-10-16T04:44:20.284Z,100480.97
2022-10-16T04:47:25.047Z,100478.84
2022-10-16T04:50:28.821Z,100482.44
2022-10-16T04:53:41.752Z,100492.09
2022-10-16T04:56:48.238Z,100490.97
2022-10-16T04:59:51.860Z,100488.75
2022-10-16T05:02:56.425Z,100491.38
2022-10-16T05:06:01.602Z,100505.44
2022-10-16T05:09:05.021Z,100514.78
2022-10-16T05:12:17.228Z,100524.81
2022-10-16T05:15:22.468Z,100537.84
2022-10-16T05:18:26.838Z,100532.84
2022-10-16T05:21:29.842Z,100538.50
2022-10-16T05:24:33.120Z,100536.19
2022-10-16T05:27:36.537Z,100538.09
2022-10-16T05:30:40.028Z,100533.00
2022-10-16T05:33:45.024Z,100529.16
2022-10-16T05:36:51.110Z,100535.09
2022-10-16T05:39:54.215Z,100521.22
2022-10-16T05:42:59.389Z,100529.91
2022-10-16T05:46:05.619Z,100529.75
2022-10-16T05:49:10.546Z,100544.78
2022-10-16T05:52:13.566Z,100544.50
2022-10-16T05:55:19.362Z,100546.19
2022-10-16T05:58:23.149Z,100539.59
2022-10-16T06:01:26.255Z,100540.66
2022-10-16T06:04:30.741Z,100538.19
2022-10-16T06:07:37.433Z,100547.25
2022-10-16T06:10:42.457Z,100546.19
2022-10-16T06:13:46.918Z,100549.25
2022-10-16T06:16:50.141Z,100555.28
2022-10-16T06:19:56.611Z,100554.38
2022-10-16T06:23:15.114Z,100560.00
2022-10-16T06:26:21.854Z,100570.25
2022-10-16T06:29:24.965Z,100552.19
2022-10-16T06:32:29.244Z,100547.97
2022-10-16T06:35:36.258Z,100556.94
2022-10-16T06:38:40.307Z,100566.19
2022-10-16T06:43:03.510Z,100577.63
2022-10-16T06:46:09.801Z,100579.19
2022-10-16T06:49:12.877Z,100586.63
2022-10-16T06:52:17.630Z,100590.50
2022-10-16T06:55:29.816Z,100584.03
2022-10-16T06:58:33.235Z,100595.91
2022-10-16T07:01:36.534Z,100587.50
2022-10-16T07:04:39.754Z,100596.78
2022-10-16T07:07:52.381Z,100592.78
2022-10-16T07:11:02.681Z,100595.28
2022-10-16T07:14:22.487Z,100602.19
2022-10-16T07:17:27.119Z,100613.25
2022-10-16T07:20:30.354Z,100620.25
2022-10-16T07:23:35.698Z,100614.88
2022-10-16T07:26:40.582Z,100605.34
2022-10-16T07:29:43.893Z,100616.50
2022-10-16T07:32:46.891Z,100615.13
2022-10-16T07:35:51.656Z,100624.63
2022-10-16T07:38:58.865Z,100613.16
2022-10-16T07:42:03.265Z,100620.63
2022-10-16T07:45:08.343Z,100629.59
2022-10-16T07:48:11.944Z,100641.19
2022-10-16T07:51:17.536Z,100660.09
2022-10-16T07:54:22.105Z,100653.03
2022-10-16T07:57:25.293Z,100665.06
2022-10-16T08:00:30.828Z,100682.88
2022-10-16T08:03:34.478Z,100690.72
2022-10-16T08:06:44.150Z,100693.47
2022-10-16T08:09:52.472Z,100713.91
2022-10-16T08:12:58.081Z,100723.84
2022-10-16T08:16:08.161Z,100744.28
2022-10-16T08:19:14.438Z,100755.22
2022-10-16T08:22:17.759Z,100761.84
2022-10-16T08:25:24.350Z,100754.88
2022-10-16T08:28:27.535Z,100757.50
2022-10-16T08:31:30.861Z,100763.13
2022-10-16T08:34:34.002Z,100773.09
2022-10-16T08:37:37.683Z,100783.03
2022-10-16T08:40:52.775Z,100793.66
2022-10-16T08:44:27.765Z,100808.19
2022-10-16T08:47:59.605Z,100813.84
2022-10-16T08:51:05.017Z,100827.28
2022-10-16T08:54:27.027Z,100834.59
2022-10-16T08:57:34.995Z,100847.31
2022-10-16T09:00:38.070Z,100842.44
2022-10-16T09:04:03.050Z,100844.94
2022-10-16T09:07:12.661Z,100851.44
2022-10-16T09:10:35.066Z,100852.09
2022-10-16T09:13:50.975Z,100858.38
2022-10-16T09:17:00.897Z,100877.00
2022-10-16T09:20:22.055Z,100895.22
2022-10-16T09:23:29.207Z,100913.50
2022-10-16T09:26:32.267Z,100922.59
2022-10-16T09:29:36.673Z,100918.09
2022-10-16T09:32:41.066Z,100927.66
2022-10-16T09:35:51.220Z,100931.34
2022-10-16T09:39:06.881Z,100939.47
2022-10-16T09:42:17.265Z,100948.09
2022-10-16T09:45:28.070Z,100952.31
2022-10-16T09:49:15.877Z,100967.88
2022-10-16T09:52:34.378Z,100976.84
2022-10-16T09:55:37.822Z,100994.63
2022-10-16T09:58:44.106Z,100995.09
2022-10-16T10:01:53.034Z,101003.44
2022-10-16T10:04:57.021Z,101005.94
2022-10-16T10:08:06.983Z,100993.25
2022-10-16T10:11:13.975Z,101003.75
2022-10-16T10:14:39.657Z,101021.69
2022-10-16T10:17:51.849Z,101029.25
2022-10-16T10:21:02.066Z,101032.25
2022-10-16T10:24:06.131Z,101023.34
2022-10-16T10:27:31.537Z,101024.22
2022-10-16T10:35:14.931Z,101046.84
2022-10-16T10:38:36.068Z,101042.34
2022-10-16T10:42:11.450Z,101058.56
2022-10-16T10:45:22.913Z,101076.38
2022-10-16T10:48:53.082Z,101070.19
2022-10-16T10:52:12.144Z,101063.41
2022-10-16T10:55:26.707Z,101074.63
2022-10-16T10:58:53.850Z,101075.63
2022-10-16T11:02:01.072Z,101091.41
2022-10-16T11:05:43.389Z,101089.09
2022-10-16T11:08:53.181Z,101086.16
2022-10-16T11:12:03.462Z,101109.59
2022-10-16T11:15:14.811Z,101105.50
2022-10-16T11:18:24.140Z,101114.25
2022-10-16T11:21:31.206Z,101110.16
2022-10-16T11:24:45.067Z,101118.03
2022-10-16T11:27:53.346Z,101116.72
2022-10-16T11:31:02.901Z,101124.25
2022-10-16T11:34:12.963Z,101133.59
2022-10-16T11:37:21.750Z,101124.13
2022-10-16T11:40:30.649Z,101113.66
2022-10-16T11:43:39.266Z,101117.53
2022-10-16T11:46:59.198Z,101115.53
2022-10-16T11:50:23.110Z,101114.44
2022-10-16T11:53:45.029Z,101111.13
2022-10-16T11:56:54.053Z,101120.72
2022-10-16T12:00:00.962Z,101135.44
2022-10-16T12:03:16.994Z,101131.78
2022-10-16T12:06:33.814Z,101135.22
2022-10-16T12:09:41.335Z,101134.53
2022-10-16T12:12:47.304Z,101146.53
2022-10-16T12:16:05.647Z,101157.28
2022-10-16T12:19:16.126Z,101158.97
2022-10-16T12:22:20.792Z,101157.91
2022-10-16T12:25:29.439Z,101150.88
2022-10-16T12:28:35.470Z,101153.53
2022-10-16T12:31:49.678Z,101161.47
2022-10-16T12:35:02.637Z,101167.97
2022-10-16T12:38:17.657Z,101174.72
2022-10-16T12:41:29.517Z,101170.06
2022-10-16T12:44:37.976Z,101174.00
2022-10-16T12:47:52.266Z,101173.72
2022-10-16T12:50:55.230Z,101179.78
2022-10-16T12:54:02.496Z,101177.22
2022-10-16T12:57:36.923Z,101185.56
2022-10-16T13:00:49.022Z,101188.66
2022-10-16T13:04:35.580Z,101181.47
2022-10-16T13:08:01.278Z,101186.56
2022-10-16T13:11:13.897Z,101199.94
2022-10-16T13:14:41.068Z,101194.28
2022-10-16T13:17:57.544Z,101197.59
2022-10-16T13:21:13.114Z,101208.63
2022-10-16T13:24:34.606Z,101210.13
2022-10-16T13:27:45.979Z,101209.59
2022-10-16T13:30:55.224Z,101215.59
2022-10-16T13:34:02.155Z,101215.59
2022-10-16T13:37:19.185Z,101227.06
2022-10-16T13:40:25.443Z,101227.75
2022-10-16T13:43:33.912Z,101231.69
2022-10-16T13:46:36.872Z,101237.50
2022-10-16T13:49:41.116Z,101227.09
2022-10-16T13:52:44.453Z,101223.47
2022-10-16T13:55:47.707Z,101224.94
2022-10-16T13:59:01.424Z,101229.38
2022-10-16T14:02:20.818Z,101240.81
2022-10-16T14:05:25.584Z,101241.66
2022-10-16T14:08:30.868Z,101237.19
2022-10-16T14:11:34.820Z,101243.84
2022-10-16T14:14:44.778Z,101240.03
2022-10-16T14:17:52.416Z,101245.81
2022-10-16T14:21:01.529Z,101250.28
2022-10-16T14:24:13.680Z,101256.91
2022-10-16T14:27:31.148Z,101259.25
2022-10-16T14:30:37.520Z,101256.91
2022-10-16T14:33:40.480Z,101249.63
2022-10-16T14:36:44.812Z,101244.16
2022-10-16T14:39:51.931Z,101242.00
2022-10-16T14:42:55.712Z,101250.06
2022-10-16T14:45:59.509Z,101247.53
2022-10-16T14:49:08.081Z,101253.84
2022-10-16T14:52:13.892Z,101267.00
2022-10-16T14:55:18.024Z,101259.06
2022-10-16T14:58:26.240Z,101260.94
2022-10-16T15:01:29.164Z,101263.72
2022-10-16T15:04:32.161Z,101273.84
2022-10-16T15:07:37.092Z,101267.56
2022-10-16T15:10:43.368Z,101268.66
2022-10-16T15:13:46.473Z,101266.59
2022-10-16T15:16:49.387Z,101273.88
2022-10-16T15:19:52.478Z,101276.66
2022-10-16T15:22:56.759Z,101285.66
2022-10-16T15:26:00.398Z,101287.47
2022-10-16T15:29:03.545Z,101291.72
2022-10-16T15:32:06.886Z,101297.59
2022-10-16T15:35:13.295Z,101289.81
2022-10-16T15:38:19.639Z,101304.97
2022-10-16T15:41:23.264Z,101304.38
2022-10-16T15:44:30.491Z,101313.59
2022-10-16T15:47:33.724Z,101315.09
2022-10-16T15:50:39.909Z,101319.28
2022-10-16T15:53:44.603Z,101318.75
2022-10-16T15:56:47.642Z,101334.78
2022-10-16T15:59:50.633Z,101338.53
2022-10-16T16:02:55.713Z,101340.72
2022-10-16T16:05:59.541Z,101346.47
2022-10-16T16:12:12.103Z,101339.75
2022-10-16T16:15:15.100Z,101349.31
2022-10-16T16:18:18.105Z,101340.94
2022-10-16T16:21:21.531Z,101347.97
2022-10-16T16:24:25.784Z,101351.41
2022-10-16T16:27:30.754Z,101348.19
2022-10-16T16:30:35.638Z,101345.88
2022-10-16T16:33:38.957Z,101346.13
2022-10-16T16:36:42.096Z,101356.56
2022-10-16T16:39:46.344Z,101354.97
2022-10-16T16:42:50.359Z,101350.13
2022-10-16T16:45:53.434Z,101350.81
2022-10-16T16:48:56.525Z,101344.91
2022-10-16T16:51:59.661Z,101359.50
2022-10-16T16:55:03.996Z,101364.28
2022-10-16T16:58:07.045Z,101360.72
2022-10-16T17:01:20.707Z,101379.81
2022-10-16T17:04:24.455Z,101384.13
2022-10-16T17:07:28.700Z,101381.38
2022-10-16T17:10:33.097Z,101370.88
2022-10-16T17:13:38.300Z,101373.91
2022-10-16T17:16:44.628Z,101368.63
2022-10-16T17:19:47.548Z,101384.09
2022-10-16T17:22:50.799Z,101374.31
2022-10-16T17:25:55.369Z,101378.22
2022-10-16T17:29:01.134Z,101384.91
2022-10-16T17:32:06.056Z,101383.19
2022-10-16T17:35:09.889Z,101395.16
2022-10-16T17:38:16.692Z,101388.47
2022-10-16T17:41:23.037Z,101391.22
2022-10-16T17:44:25.965Z,101406.69
2022-10-16T17:47:29.252Z,101408.69
2022-10-16T17:50:32.239Z,101405.81
2022-10-16T17:53:35.827Z,101400.97
2022-10-16T17:56:40.149Z,101400.00
2022-10-16T17:59:43.236Z,101396.13
2022-10-16T18:02:46.213Z,101394.28
2022-10-16T18:05:49.207Z,101390.34
2022-10-16T18:08:52.817Z,101384.31
2022-10-16T18:12:00.513Z,101371.75
2022-10-16T18:15:04.905Z,101379.19
2022-10-16T18:18:08.373Z,101390.94
2022-10-16T18:21:14.226Z,101388.00
2022-10-16T18:24:18.183Z,101383.09
2022-10-16T18:27:22.479Z,101392.81
2022-10-16T18:30:25.407Z,101396.16
2022-10-16T18:33:30.757Z,101390.19
2022-10-16T18:36:35.734Z,101394.31
2022-10-16T18:39:39.091Z,101402.88
2022-10-16T18:42:43.959Z,101409.38
2022-10-16T18:45:56.949Z,101423.03
2022-10-16T18:49:01.276Z,101424.00
2022-10-16T18:52:04.707Z,101430.38
2022-10-16T18:55:10.415Z,101433.41
2022-10-16T18:58:14.695Z,101431.03
2022-10-16T19:01:21.511Z,101443.56
2022-10-16T19:04:25.234Z,101446.59
2022-10-16T19:07:28.574Z,101431.34
2022-10-16T19:10:31.810Z,101417.63
2022-10-16T19:13:36.960Z,101415.00
2022-10-16T19:16:42.772Z,101419.00
2022-10-16T19:19:45.799Z,101422.34
2022-10-16T19:22:56.774Z,101420.78
2022-10-16T19:26:04.116Z,101425.78
2022-10-16T19:29:09.462Z,101427.13
2022-10-16T19:32:14.439Z,101430.06
2022-10-16T19:35:17.663Z,101418.78
2022-10-16T19:38:21.455Z,101412.06
2022-10-16T19:41:25.148Z,101402.56
2022-10-16T19:44:29.506Z,101412.59
2022-10-16T19:47:33.127Z,101412.41
2022-10-16T19:50:36.067Z,101417.22
2022-10-16T19:53:39.178Z,101424.09
2022-10-16T19:57:07.798Z,101417.22
2022-10-16T20:00:14.177Z,101412.72
2022-10-16T20:03:17.548Z,101421.69
2022-10-16T20:06:22.149Z,101428.81
2022-10-16T20:09:25.078Z,101441.34
2022-10-16T20:12:28.268Z,101437.19
2022-10-16T20:15:32.656Z,101451.47
2022-10-16T20:18:35.806Z,101457.72
2022-10-16T20:21:39.093Z,101458.03
2022-10-16T20:24:42.070Z,101467.09
2022-10-16T20:27:45.039Z,101472.34
2022-10-16T20:30:51.536Z,101476.19
2022-10-16T20:33:57.938Z,101469.47
2022-10-16T20:37:01.186Z,101468.56
2022-10-16T20:40:04.612Z,101476.59
2022-10-16T20:43:08.474Z,101483.47
2022-10-16T20:46:16.183Z,101493.00
2022-10-16T20:49:35.850Z,101495.09
2022-10-16T20:52:39.087Z,101485.56
2022-10-16T20:55:42.140Z,101483.03
2022-10-16T20:58:45.769Z,101481.28
2022-10-16T21:01:50.384Z,101473.44
2022-10-16T21:04:53.617Z,101461.13
2022-10-16T21:07:56.634Z,101461.22
2022-10-16T21:10:59.564Z,101465.31
2022-10-16T21:14:06.259Z,101467.81
2022-10-16T21:17:10.598Z,101469.47
2022-10-16T21:20:13.554Z,101472.97
2022-10-16T21:23:16.486Z,101467.81
2022-10-16T21:26:25.828Z,101469.19
2022-10-16T21:29:29.049Z,101468.47
2022-10-16T21:32:33.377Z,101470.41
2022-10-16T21:35:36.393Z,101472.00
2022-10-16T21:38:39.366Z,101483.47
2022-10-16T21:41:44.432Z,101494.47
2022-10-16T21:44:47.592Z,101501.59
2022-10-16T21:47:51.903Z,101499.41
2022-10-16T21:50:54.879Z,101497.72
2022-10-16T21:53:57.879Z,101500.44
2022-10-16T21:57:00.828Z,101513.50
2022-10-16T22:00:08.829Z,101520.50
2022-10-16T22:03:13.560Z,101524.88
2022-10-16T22:06:19.024Z,101525.94
2022-10-16T22:09:22.381Z,101519.47
2022-10-16T22:12:25.302Z,101519.22
2022-10-16T22:15:28.461Z,101502.91
2022-10-16T22:18:33.379Z,101495.16
2022-10-16T22:21:40.789Z,101501.44
2022-10-16T22:24:43.713Z,101507.69
2022-10-16T22:27:46.700Z,101511.13
2022-10-16T22:30:49.668Z,101503.59
2022-10-16T22:33:57.100Z,101494.19
2022-10-16T22:37:00.144Z,101490.28
2022-10-16T22:40:03.062Z,101504.47
2022-10-16T22:43:07.516Z,101513.97
2022-10-16T22:46:14.390Z,101507.19
2022-10-16T22:49:20.342Z,101514.19
2022-10-16T22:52:23.267Z,101518.19
2022-10-16T22:55:26.180Z,101505.03
2022-10-16T22:58:29.448Z,101512.13
2022-10-16T23:01:35.612Z,101509.63
2022-10-16T23:04:39.880Z,101517.19
2022-10-16T23:07:44.781Z,101515.31
2022-10-16T23:10:49.596Z,101517.53
2022-10-16T23:13:52.617Z,101524.34
2022-10-16T23:16:55.551Z,101516.94
2022-10-16T23:19:59.779Z,101508.00
2022-10-16T23:23:02.917Z,101499.00
2022-10-16T23:26:10.961Z,101511.66
2022-10-16T23:29:13.963Z,101498.44
2022-10-16T23:32:16.860Z,101506.91
2022-10-16T23:35:21.311Z,101502.13
2022-10-16T23:38:24.236Z,101491.66
2022-10-16T23:41:27.184Z,101494.19
2022-10-16T23:44:30.110Z,101496.69
2022-10-16T23:47:33.431Z,101498.56
2022-10-16T23:50:37.791Z,101491.91
2022-10-16T23:53:41.180Z,101509.88
2022-10-16T23:56:44.158Z,101512.50
2022-10-16T23:59:47.084Z,101508.75
